Briefing drone pour Montpon-menesterol

Rechercher une autre localisation

Conditions de vol :


Nous sommes le : Vendredi 26 février 2021
Il est 22:17 UTC (23:17 LT)

Lever de soleil : 06:15 UTC (07:15 LT)
Coucher de soleil : 18:09 UTC (19:09 LT)

Météo

L'essentiel des conditions de vol

VIGILANCE MÉTÉO FRANCE - Dordogne (24)
Pas de vigilances particulieres
METAR de LFBE
LFBE 262200Z AUTO VRB03KT CAVOK 07/05 Q1033

Date d'émission: 26/02/2021
Heure d'émission: 22:00 UTC
Vent: Variable 3 KT (6 km/h)
Visibilité horizontale: > 10 km
Plafond : Plafond et visibilité OK (CAVOK)
Température: 7 °C
Point de rosée: 5 °C
Humidité: 87%
Pression (QNH): 1033 hPa
TAF de LFBE
LFBE 262100Z 2621/2718 CNL= LFRI 262100Z 2621/2718 CNL

Conditions prévues :

Heure d'émission : Bulletin éffectué le 26 à 21:00 UTC
Prévision : Valide du 26 a 21:00 UTC au 27 a 18:00 UTC
Nuages : à 0ft (0 m)
à 0ft (0 m)
à 0ft (0 m)
à 0ft (0 m)
WEBCAM POUR MONTPON-MENESTEROL

Réglementation

Voler en sécurité

CARTES AERONAUTIQUE 1/500.000
CARTES VAC (LFBE)
SUP AIP




Chargement des AIP...
NOTAM (MONTPON-MENESTEROL + Terrain à proximité / FIR )




Chargement des NOTAMS...
CONTACT PREFECTURE 24


Avertissement : Les données mises à disposition sont indicatives. Oxygène Drone ne pourra être tenu responsable de dégâts causés aux biens et aux personnes.